Beloretsk, Russia
Current Conditions -  °F | °C
As of 3:30 AM on Saturday 01 Nov 2014 (Local Time) from UWUU Reporting Station
Overcast Overcast  
Wind Chill: 34°   Ceiling: 3300
Heat Index: 41°   Visibility: 6mi
Dew Point: 27°   Wind: 13mph
Humidity: 57%   Direction: 200°SSW
Pressure: 30.03"   Gusts: NA
Location:  54.55°N, 56.32°E
Report Text: UWUU 312230Z 20006MPS 9999 OVC033 05/M03 Q1017 141///50 NOSIGRMK QFE752/1002
Loading
Personal Weather Stations






























Interactive Weather Map
Tropical Storm Tracking
New forecast layout! Learn more

10-Day Weather Forecast

Advertisements
Track Severe Weather on mobile